sensor_id;sensor_type;location;lat;lon;timestamp;P1;durP1;ratioP1;P2;durP2;ratioP2
20966;SDS011;10642;50.682;18.510;2022-11-15T00:01:40;42.70;;;21.67;;
20966;SDS011;10642;50.682;18.510;2022-11-15T00:04:26;44.13;;;21.07;;
20966;SDS011;10642;50.682;18.510;2022-11-15T00:07:11;45.27;;;21.53;;
20966;SDS011;10642;50.682;18.510;2022-11-15T00:10:17;44.03;;;20.93;;
20966;SDS011;10642;50.682;18.510;2022-11-15T00:13:09;46.73;;;20.47;;
20966;SDS011;10642;50.682;18.510;2022-11-15T03:14:48;33.43;;;17.63;;
20966;SDS011;10642;50.682;18.510;2022-11-15T03:17:38;38.33;;;17.77;;
20966;SDS011;10642;50.682;18.510;2022-11-15T03:20:26;33.40;;;17.60;;
20966;SDS011;10642;50.682;18.510;2022-11-15T03:23:12;32.70;;;17.27;;
20966;SDS011;10642;50.682;18.510;2022-11-15T03:25:58;35.37;;;16.67;;
20966;SDS011;10642;50.682;18.510;2022-11-15T03:28:55;36.23;;;17.53;;
20966;SDS011;10642;50.682;18.510;2022-11-15T03:31:42;33.20;;;17.17;;
20966;SDS011;10642;50.682;18.510;2022-11-15T03:34:42;33.03;;;18.27;;
20966;SDS011;10642;50.682;18.510;2022-11-15T03:37:40;36.30;;;16.97;;
20966;SDS011;10642;50.682;18.510;2022-11-15T03:40:35;38.13;;;18.50;;
20966;SDS011;10642;50.682;18.510;2022-11-15T03:49:12;34.57;;;18.37;;
20966;SDS011;10642;50.682;18.510;2022-11-15T03:51:59;35.60;;;17.83;;
20966;SDS011;10642;50.682;18.510;2022-11-15T03:54:55;36.97;;;18.27;;
20966;SDS011;10642;50.682;18.510;2022-11-15T03:57:41;30.80;;;17.57;;
20966;SDS011;10642;50.682;18.510;2022-11-15T04:00:27;35.43;;;18.20;;
20966;SDS011;10642;50.682;18.510;2022-11-15T04:03:13;36.53;;;18.80;;
20966;SDS011;10642;50.682;18.510;2022-11-15T04:05:58;37.50;;;18.73;;
20966;SDS011;10642;50.682;18.510;2022-11-15T04:08:44;34.83;;;18.00;;
20966;SDS011;10642;50.682;18.510;2022-11-15T04:11:29;30.53;;;17.30;;
20966;SDS011;10642;50.682;18.510;2022-11-15T04:14:14;33.50;;;19.10;;
20966;SDS011;10642;50.682;18.510;2022-11-15T04:17:00;37.67;;;18.27;;
20966;SDS011;10642;50.682;18.510;2022-11-15T04:19:46;35.97;;;17.43;;
20966;SDS011;10642;50.682;18.510;2022-11-15T04:22:53;35.87;;;17.77;;
20966;SDS011;10642;50.682;18.510;2022-11-15T04:25:58;35.67;;;18.60;;
20966;SDS011;10642;50.682;18.510;2022-11-15T04:28:44;37.20;;;17.83;;
20966;SDS011;10642;50.682;18.510;2022-11-15T04:31:48;33.17;;;18.33;;
20966;SDS011;10642;50.682;18.510;2022-11-15T04:34:34;33.03;;;17.97;;
20966;SDS011;10642;50.682;18.510;2022-11-15T04:37:20;38.70;;;18.20;;
20966;SDS011;10642;50.682;18.510;2022-11-15T04:40:05;34.80;;;18.53;;
20966;SDS011;10642;50.682;18.510;2022-11-15T04:42:51;36.63;;;18.73;;
20966;SDS011;10642;50.682;18.510;2022-11-15T04:45:36;32.63;;;18.00;;
20966;SDS011;10642;50.682;18.510;2022-11-15T04:48:23;33.00;;;18.27;;
20966;SDS011;10642;50.682;18.510;2022-11-15T04:51:08;36.67;;;18.43;;
20966;SDS011;10642;50.682;18.510;2022-11-15T04:53:53;34.60;;;18.43;;
20966;SDS011;10642;50.682;18.510;2022-11-15T04:56:39;35.87;;;19.63;;
20966;SDS011;10642;50.682;18.510;2022-11-15T04:59:24;37.17;;;18.20;;
20966;SDS011;10642;50.682;18.510;2022-11-15T05:02:09;36.43;;;18.93;;
20966;SDS011;10642;50.682;18.510;2022-11-15T05:04:55;34.20;;;17.43;;
20966;SDS011;10642;50.682;18.510;2022-11-15T05:07:40;32.27;;;17.30;;
20966;SDS011;10642;50.682;18.510;2022-11-15T05:10:26;37.53;;;19.57;;
20966;SDS011;10642;50.682;18.510;2022-11-15T05:13:11;38.53;;;19.33;;
20966;SDS011;10642;50.682;18.510;2022-11-15T05:15:57;34.90;;;18.17;;
20966;SDS011;10642;50.682;18.510;2022-11-15T05:18:42;34.03;;;17.67;;
20966;SDS011;10642;50.682;18.510;2022-11-15T05:21:27;35.07;;;17.60;;
20966;SDS011;10642;50.682;18.510;2022-11-15T05:24:13;31.60;;;17.70;;
20966;SDS011;10642;50.682;18.510;2022-11-15T05:26:58;34.23;;;18.10;;
20966;SDS011;10642;50.682;18.510;2022-11-15T05:29:44;30.93;;;17.30;;
20966;SDS011;10642;50.682;18.510;2022-11-15T05:32:29;36.90;;;18.97;;
20966;SDS011;10642;50.682;18.510;2022-11-15T05:35:19;36.97;;;18.77;;
20966;SDS011;10642;50.682;18.510;2022-11-15T05:38:05;35.17;;;18.50;;
20966;SDS011;10642;50.682;18.510;2022-11-15T05:40:50;31.43;;;17.10;;
20966;SDS011;10642;50.682;18.510;2022-11-15T05:43:36;34.60;;;17.10;;
20966;SDS011;10642;50.682;18.510;2022-11-15T05:46:22;32.00;;;17.33;;
20966;SDS011;10642;50.682;18.510;2022-11-15T05:49:09;32.40;;;16.97;;
20966;SDS011;10642;50.682;18.510;2022-11-15T05:51:56;34.77;;;18.50;;
20966;SDS011;10642;50.682;18.510;2022-11-15T05:54:42;32.93;;;17.23;;
20966;SDS011;10642;50.682;18.510;2022-11-15T05:57:28;35.03;;;17.87;;
20966;SDS011;10642;50.682;18.510;2022-11-15T06:00:13;34.90;;;16.87;;
20966;SDS011;10642;50.682;18.510;2022-11-15T06:02:59;32.23;;;16.27;;
20966;SDS011;10642;50.682;18.510;2022-11-15T06:05:44;31.07;;;17.37;;
20966;SDS011;10642;50.682;18.510;2022-11-15T06:08:30;34.43;;;18.73;;
20966;SDS011;10642;50.682;18.510;2022-11-15T06:11:15;44.77;;;19.63;;
20966;SDS011;10642;50.682;18.510;2022-11-15T06:14:01;56.37;;;23.90;;
20966;SDS011;10642;50.682;18.510;2022-11-15T06:16:46;50.70;;;23.27;;
20966;SDS011;10642;50.682;18.510;2022-11-15T06:19:32;42.80;;;21.90;;
20966;SDS011;10642;50.682;18.510;2022-11-15T06:22:18;48.73;;;22.07;;
20966;SDS011;10642;50.682;18.510;2022-11-15T06:25:03;51.37;;;26.63;;
20966;SDS011;10642;50.682;18.510;2022-11-15T06:27:53;41.17;;;20.90;;
20966;SDS011;10642;50.682;18.510;2022-11-15T06:30:39;48.50;;;20.43;;
20966;SDS011;10642;50.682;18.510;2022-11-15T06:33:24;40.97;;;19.97;;
20966;SDS011;10642;50.682;18.510;2022-11-15T06:36:11;38.53;;;20.10;;
20966;SDS011;10642;50.682;18.510;2022-11-15T06:39:05;40.70;;;20.50;;
20966;SDS011;10642;50.682;18.510;2022-11-15T06:41:50;51.57;;;24.00;;
20966;SDS011;10642;50.682;18.510;2022-11-15T06:44:35;41.60;;;21.40;;
20966;SDS011;10642;50.682;18.510;2022-11-15T06:47:21;42.57;;;20.50;;
20966;SDS011;10642;50.682;18.510;2022-11-15T06:50:06;36.77;;;20.03;;
20966;SDS011;10642;50.682;18.510;2022-11-15T06:52:52;39.10;;;21.40;;
20966;SDS011;10642;50.682;18.510;2022-11-15T06:55:37;44.27;;;21.73;;
20966;SDS011;10642;50.682;18.510;2022-11-15T06:58:23;40.80;;;20.80;;
20966;SDS011;10642;50.682;18.510;2022-11-15T07:01:09;34.77;;;19.20;;
20966;SDS011;10642;50.682;18.510;2022-11-15T07:03:55;38.70;;;19.00;;
20966;SDS011;10642;50.682;18.510;2022-11-15T07:06:40;28.30;;;16.37;;
20966;SDS011;10642;50.682;18.510;2022-11-15T07:09:26;39.37;;;18.30;;
20966;SDS011;10642;50.682;18.510;2022-11-15T07:12:11;37.33;;;17.57;;
20966;SDS011;10642;50.682;18.510;2022-11-15T07:14:57;36.57;;;17.17;;
20966;SDS011;10642;50.682;18.510;2022-11-15T07:17:42;34.57;;;18.07;;
20966;SDS011;10642;50.682;18.510;2022-11-15T07:20:28;31.97;;;17.67;;
20966;SDS011;10642;50.682;18.510;2022-11-15T07:23:13;34.27;;;17.70;;
20966;SDS011;10642;50.682;18.510;2022-11-15T07:25:59;32.97;;;17.67;;
20966;SDS011;10642;50.682;18.510;2022-11-15T07:28:45;36.13;;;18.80;;
20966;SDS011;10642;50.682;18.510;2022-11-15T07:31:30;34.83;;;18.30;;
20966;SDS011;10642;50.682;18.510;2022-11-15T07:34:16;35.73;;;17.60;;
20966;SDS011;10642;50.682;18.510;2022-11-15T07:37:02;30.50;;;17.87;;
20966;SDS011;10642;50.682;18.510;2022-11-15T07:39:47;33.87;;;17.67;;
20966;SDS011;10642;50.682;18.510;2022-11-15T07:42:33;32.90;;;18.40;;
20966;SDS011;10642;50.682;18.510;2022-11-15T07:45:40;33.00;;;16.77;;
20966;SDS011;10642;50.682;18.510;2022-11-15T07:48:26;29.83;;;16.53;;
20966;SDS011;10642;50.682;18.510;2022-11-15T07:51:27;32.67;;;18.03;;
20966;SDS011;10642;50.682;18.510;2022-11-15T07:54:12;34.13;;;17.97;;
20966;SDS011;10642;50.682;18.510;2022-11-15T07:56:58;35.23;;;18.43;;
20966;SDS011;10642;50.682;18.510;2022-11-15T07:59:51;30.47;;;17.23;;
20966;SDS011;10642;50.682;18.510;2022-11-15T08:02:37;34.10;;;18.27;;
20966;SDS011;10642;50.682;18.510;2022-11-15T08:05:22;34.73;;;18.50;;
20966;SDS011;10642;50.682;18.510;2022-11-15T08:08:08;35.50;;;17.77;;
20966;SDS011;10642;50.682;18.510;2022-11-15T08:10:54;34.30;;;18.17;;
20966;SDS011;10642;50.682;18.510;2022-11-15T08:13:40;32.23;;;17.87;;
20966;SDS011;10642;50.682;18.510;2022-11-15T08:16:25;31.33;;;17.53;;
20966;SDS011;10642;50.682;18.510;2022-11-15T08:19:11;33.40;;;17.03;;
20966;SDS011;10642;50.682;18.510;2022-11-15T08:21:56;29.97;;;16.90;;
20966;SDS011;10642;50.682;18.510;2022-11-15T08:24:43;30.30;;;17.00;;
20966;SDS011;10642;50.682;18.510;2022-11-15T08:27:28;31.43;;;17.47;;
20966;SDS011;10642;50.682;18.510;2022-11-15T08:30:14;33.67;;;17.27;;
20966;SDS011;10642;50.682;18.510;2022-11-15T08:33:01;28.60;;;16.60;;
20966;SDS011;10642;50.682;18.510;2022-11-15T08:35:46;31.03;;;16.47;;
20966;SDS011;10642;50.682;18.510;2022-11-15T08:38:32;29.37;;;16.60;;
20966;SDS011;10642;50.682;18.510;2022-11-15T08:41:35;29.53;;;16.57;;
20966;SDS011;10642;50.682;18.510;2022-11-15T08:44:21;28.23;;;15.53;;
20966;SDS011;10642;50.682;18.510;2022-11-15T08:47:07;32.03;;;17.30;;
20966;SDS011;10642;50.682;18.510;2022-11-15T08:49:53;34.50;;;17.27;;
20966;SDS011;10642;50.682;18.510;2022-11-15T08:52:39;33.53;;;16.33;;
20966;SDS011;10642;50.682;18.510;2022-11-15T08:55:24;30.67;;;16.27;;
20966;SDS011;10642;50.682;18.510;2022-11-15T08:58:10;31.07;;;16.47;;
20966;SDS011;10642;50.682;18.510;2022-11-15T09:00:55;26.60;;;15.07;;
20966;SDS011;10642;50.682;18.510;2022-11-15T09:03:41;29.57;;;17.17;;
20966;SDS011;10642;50.682;18.510;2022-11-15T09:06:26;31.00;;;16.23;;
20966;SDS011;10642;50.682;18.510;2022-11-15T09:09:12;36.27;;;16.87;;
20966;SDS011;10642;50.682;18.510;2022-11-15T09:11:57;29.60;;;17.30;;
20966;SDS011;10642;50.682;18.510;2022-11-15T09:14:47;31.47;;;16.63;;
20966;SDS011;10642;50.682;18.510;2022-11-15T09:17:32;36.13;;;19.20;;
20966;SDS011;10642;50.682;18.510;2022-11-15T09:20:17;33.37;;;16.53;;
20966;SDS011;10642;50.682;18.510;2022-11-15T09:23:04;24.63;;;15.30;;
20966;SDS011;10642;50.682;18.510;2022-11-15T09:25:49;31.80;;;17.83;;
20966;SDS011;10642;50.682;18.510;2022-11-15T09:28:35;33.53;;;18.97;;
20966;SDS011;10642;50.682;18.510;2022-11-15T09:31:21;34.67;;;17.33;;
20966;SDS011;10642;50.682;18.510;2022-11-15T09:34:06;30.97;;;16.37;;
20966;SDS011;10642;50.682;18.510;2022-11-15T09:36:52;31.40;;;17.77;;
20966;SDS011;10642;50.682;18.510;2022-11-15T09:39:38;29.23;;;15.67;;
20966;SDS011;10642;50.682;18.510;2022-11-15T09:42:25;24.83;;;15.83;;
20966;SDS011;10642;50.682;18.510;2022-11-15T09:45:23;30.63;;;16.80;;
20966;SDS011;10642;50.682;18.510;2022-11-15T09:50:58;27.77;;;13.87;;
20966;SDS011;10642;50.682;18.510;2022-11-15T09:53:36;28.17;;;16.37;;
20966;SDS011;10642;50.682;18.510;2022-11-15T09:56:32;30.00;;;16.53;;
20966;SDS011;10642;50.682;18.510;2022-11-15T10:04:11;29.43;;;15.97;;
20966;SDS011;10642;50.682;18.510;2022-11-15T10:06:40;29.40;;;16.27;;
20966;SDS011;10642;50.682;18.510;2022-11-15T10:12:13;30.10;;;16.23;;
20966;SDS011;10642;50.682;18.510;2022-11-15T10:14:41;31.20;;;15.83;;
20966;SDS011;10642;50.682;18.510;2022-11-15T10:19:42;28.33;;;15.47;;
20966;SDS011;10642;50.682;18.510;2022-11-15T10:22:18;35.20;;;16.83;;
20966;SDS011;10642;50.682;18.510;2022-11-15T10:24:47;32.30;;;18.07;;
20966;SDS011;10642;50.682;18.510;2022-11-15T10:27:15;33.83;;;17.93;;
20966;SDS011;10642;50.682;18.510;2022-11-15T10:29:44;30.47;;;16.50;;
20966;SDS011;10642;50.682;18.510;2022-11-15T10:32:11;30.77;;;15.70;;
20966;SDS011;10642;50.682;18.510;2022-11-15T10:34:39;29.53;;;17.93;;
20966;SDS011;10642;50.682;18.510;2022-11-15T10:37:06;32.33;;;18.73;;
20966;SDS011;10642;50.682;18.510;2022-11-15T10:39:33;27.90;;;16.07;;
20966;SDS011;10642;50.682;18.510;2022-11-15T10:42:16;30.83;;;17.53;;
20966;SDS011;10642;50.682;18.510;2022-11-15T10:44:44;30.17;;;16.03;;
20966;SDS011;10642;50.682;18.510;2022-11-15T10:47:21;30.93;;;16.63;;
20966;SDS011;10642;50.682;18.510;2022-11-15T10:49:53;32.87;;;17.70;;
20966;SDS011;10642;50.682;18.510;2022-11-15T10:52:20;30.57;;;16.37;;
20966;SDS011;10642;50.682;18.510;2022-11-15T10:54:50;32.93;;;18.10;;
20966;SDS011;10642;50.682;18.510;2022-11-15T10:57:19;30.23;;;16.77;;
20966;SDS011;10642;50.682;18.510;2022-11-15T10:59:47;29.37;;;16.90;;
20966;SDS011;10642;50.682;18.510;2022-11-15T11:02:37;28.40;;;17.10;;
20966;SDS011;10642;50.682;18.510;2022-11-15T11:05:03;30.90;;;17.17;;
20966;SDS011;10642;50.682;18.510;2022-11-15T11:07:32;31.40;;;17.03;;
20966;SDS011;10642;50.682;18.510;2022-11-15T11:10:02;30.83;;;12.73;;
20966;SDS011;10642;50.682;18.510;2022-11-15T11:12:48;27.70;;;14.80;;
20966;SDS011;10642;50.682;18.510;2022-11-15T11:15:15;30.60;;;14.67;;
20966;SDS011;10642;50.682;18.510;2022-11-15T11:20:28;33.10;;;17.03;;
20966;SDS011;10642;50.682;18.510;2022-11-15T11:23:08;33.33;;;17.70;;
20966;SDS011;10642;50.682;18.510;2022-11-15T11:33:24;32.23;;;18.23;;
20966;SDS011;10642;50.682;18.510;2022-11-15T11:38:49;38.43;;;19.20;;
20966;SDS011;10642;50.682;18.510;2022-11-15T11:48:55;39.23;;;21.30;;
20966;SDS011;10642;50.682;18.510;2022-11-15T11:51:34;42.27;;;22.30;;
20966;SDS011;10642;50.682;18.510;2022-11-15T11:54:12;52.07;;;26.77;;
20966;SDS011;10642;50.682;18.510;2022-11-15T11:56:41;44.07;;;24.47;;
20966;SDS011;10642;50.682;18.510;2022-11-15T11:59:23;44.60;;;22.97;;
20966;SDS011;10642;50.682;18.510;2022-11-15T12:01:52;49.57;;;25.13;;
20966;SDS011;10642;50.682;18.510;2022-11-15T12:07:00;51.90;;;25.43;;
20966;SDS011;10642;50.682;18.510;2022-11-15T12:09:44;44.60;;;23.47;;
20966;SDS011;10642;50.682;18.510;2022-11-15T12:12:15;48.40;;;25.30;;
20966;SDS011;10642;50.682;18.510;2022-11-15T12:17:12;46.83;;;23.27;;
20966;SDS011;10642;50.682;18.510;2022-11-15T12:19:39;48.90;;;26.73;;
20966;SDS011;10642;50.682;18.510;2022-11-15T12:22:10;46.30;;;25.43;;
20966;SDS011;10642;50.682;18.510;2022-11-15T12:24:50;44.40;;;23.83;;
20966;SDS011;10642;50.682;18.510;2022-11-15T12:27:20;48.33;;;26.40;;
20966;SDS011;10642;50.682;18.510;2022-11-15T12:29:56;52.77;;;26.37;;
20966;SDS011;10642;50.682;18.510;2022-11-15T12:32:25;47.77;;;26.03;;
20966;SDS011;10642;50.682;18.510;2022-11-15T12:34:52;52.20;;;26.93;;
20966;SDS011;10642;50.682;18.510;2022-11-15T12:42:57;51.10;;;26.90;;
20966;SDS011;10642;50.682;18.510;2022-11-15T12:45:26;45.63;;;23.13;;
20966;SDS011;10642;50.682;18.510;2022-11-15T12:47:53;49.20;;;24.23;;
20966;SDS011;10642;50.682;18.510;2022-11-15T13:01:10;53.70;;;28.37;;
20966;SDS011;10642;50.682;18.510;2022-11-15T13:04:07;54.30;;;26.20;;
20966;SDS011;10642;50.682;18.510;2022-11-15T13:06:39;50.43;;;24.07;;
20966;SDS011;10642;50.682;18.510;2022-11-15T13:11:52;50.43;;;25.13;;
20966;SDS011;10642;50.682;18.510;2022-11-15T13:17:01;55.57;;;26.13;;
20966;SDS011;10642;50.682;18.510;2022-11-15T13:19:29;60.40;;;30.10;;
20966;SDS011;10642;50.682;18.510;2022-11-15T13:21:55;53.80;;;25.77;;
20966;SDS011;10642;50.682;18.510;2022-11-15T13:24:41;54.90;;;26.33;;
20966;SDS011;10642;50.682;18.510;2022-11-15T13:27:15;49.17;;;23.43;;
20966;SDS011;10642;50.682;18.510;2022-11-15T13:29:44;53.80;;;25.97;;
20966;SDS011;10642;50.682;18.510;2022-11-15T13:32:12;47.80;;;22.17;;
20966;SDS011;10642;50.682;18.510;2022-11-15T13:34:42;47.57;;;23.40;;
20966;SDS011;10642;50.682;18.510;2022-11-15T13:39:48;46.57;;;22.63;;
20966;SDS011;10642;50.682;18.510;2022-11-15T13:42:16;49.20;;;23.53;;
20966;SDS011;10642;50.682;18.510;2022-11-15T13:44:59;50.13;;;23.20;;
20966;SDS011;10642;50.682;18.510;2022-11-15T13:47:26;40.50;;;18.90;;
20966;SDS011;10642;50.682;18.510;2022-11-15T13:49:56;53.23;;;24.60;;
20966;SDS011;10642;50.682;18.510;2022-11-15T13:52:25;47.83;;;23.30;;
20966;SDS011;10642;50.682;18.510;2022-11-15T13:55:09;45.90;;;22.33;;
20966;SDS011;10642;50.682;18.510;2022-11-15T13:57:44;40.90;;;19.70;;
20966;SDS011;10642;50.682;18.510;2022-11-15T14:03:19;37.57;;;18.50;;
20966;SDS011;10642;50.682;18.510;2022-11-15T14:08:39;47.30;;;22.47;;
20966;SDS011;10642;50.682;18.510;2022-11-15T14:11:18;43.93;;;21.33;;
20966;SDS011;10642;50.682;18.510;2022-11-15T14:16:34;44.53;;;22.53;;
20966;SDS011;10642;50.682;18.510;2022-11-15T14:19:03;51.63;;;22.97;;
20966;SDS011;10642;50.682;18.510;2022-11-15T14:21:30;48.57;;;22.40;;
20966;SDS011;10642;50.682;18.510;2022-11-15T14:24:17;47.47;;;22.77;;
20966;SDS011;10642;50.682;18.510;2022-11-15T14:26:44;39.80;;;20.40;;
20966;SDS011;10642;50.682;18.510;2022-11-15T14:29:27;47.27;;;21.97;;
20966;SDS011;10642;50.682;18.510;2022-11-15T14:32:05;45.97;;;21.67;;
20966;SDS011;10642;50.682;18.510;2022-11-15T14:34:33;47.67;;;25.13;;
20966;SDS011;10642;50.682;18.510;2022-11-15T14:37:00;45.97;;;23.40;;
20966;SDS011;10642;50.682;18.510;2022-11-15T14:39:27;48.60;;;22.50;;
20966;SDS011;10642;50.682;18.510;2022-11-15T14:41:54;45.33;;;21.33;;
20966;SDS011;10642;50.682;18.510;2022-11-15T14:44:20;46.73;;;22.73;;
20966;SDS011;10642;50.682;18.510;2022-11-15T14:46:48;43.97;;;22.20;;
20966;SDS011;10642;50.682;18.510;2022-11-15T14:49:15;45.87;;;23.33;;
20966;SDS011;10642;50.682;18.510;2022-11-15T14:51:42;44.93;;;22.00;;
20966;SDS011;10642;50.682;18.510;2022-11-15T14:54:10;44.97;;;21.60;;
20966;SDS011;10642;50.682;18.510;2022-11-15T14:56:37;50.97;;;22.77;;
20966;SDS011;10642;50.682;18.510;2022-11-15T14:59:03;41.43;;;20.13;;
20966;SDS011;10642;50.682;18.510;2022-11-15T15:01:30;46.97;;;20.60;;
20966;SDS011;10642;50.682;18.510;2022-11-15T15:03:58;45.43;;;21.30;;
20966;SDS011;10642;50.682;18.510;2022-11-15T15:06:26;42.10;;;19.60;;
20966;SDS011;10642;50.682;18.510;2022-11-15T15:08:52;42.37;;;19.83;;
20966;SDS011;10642;50.682;18.510;2022-11-15T15:11:24;42.03;;;19.97;;
20966;SDS011;10642;50.682;18.510;2022-11-15T15:13:52;35.63;;;19.60;;
20966;SDS011;10642;50.682;18.510;2022-11-15T15:16:19;39.80;;;20.00;;
20966;SDS011;10642;50.682;18.510;2022-11-15T15:18:46;40.93;;;20.43;;
20966;SDS011;10642;50.682;18.510;2022-11-15T15:21:23;40.40;;;20.47;;
20966;SDS011;10642;50.682;18.510;2022-11-15T15:23:51;38.90;;;19.13;;
20966;SDS011;10642;50.682;18.510;2022-11-15T15:26:18;47.23;;;21.43;;
20966;SDS011;10642;50.682;18.510;2022-11-15T15:28:45;43.50;;;21.10;;
20966;SDS011;10642;50.682;18.510;2022-11-15T15:31:12;47.27;;;21.83;;
20966;SDS011;10642;50.682;18.510;2022-11-15T15:33:39;41.20;;;21.57;;
20966;SDS011;10642;50.682;18.510;2022-11-15T15:36:09;42.03;;;21.43;;
20966;SDS011;10642;50.682;18.510;2022-11-15T15:38:37;43.87;;;21.13;;
20966;SDS011;10642;50.682;18.510;2022-11-15T15:41:04;45.83;;;21.83;;
20966;SDS011;10642;50.682;18.510;2022-11-15T15:43:31;42.50;;;22.03;;
20966;SDS011;10642;50.682;18.510;2022-11-15T15:45:58;45.17;;;21.83;;
20966;SDS011;10642;50.682;18.510;2022-11-15T15:48:25;41.60;;;21.43;;
20966;SDS011;10642;50.682;18.510;2022-11-15T15:50:52;47.70;;;21.30;;
20966;SDS011;10642;50.682;18.510;2022-11-15T15:53:19;45.20;;;21.87;;
20966;SDS011;10642;50.682;18.510;2022-11-15T15:55:46;44.57;;;21.37;;
20966;SDS011;10642;50.682;18.510;2022-11-15T15:58:13;52.07;;;24.70;;
20966;SDS011;10642;50.682;18.510;2022-11-15T16:00:40;43.60;;;22.60;;
20966;SDS011;10642;50.682;18.510;2022-11-15T16:03:07;44.10;;;22.23;;
20966;SDS011;10642;50.682;18.510;2022-11-15T16:05:34;48.43;;;23.27;;
20966;SDS011;10642;50.682;18.510;2022-11-15T16:08:01;47.27;;;23.50;;
20966;SDS011;10642;50.682;18.510;2022-11-15T16:10:29;48.10;;;23.07;;
20966;SDS011;10642;50.682;18.510;2022-11-15T16:12:57;46.73;;;24.70;;
20966;SDS011;10642;50.682;18.510;2022-11-15T16:15:28;62.80;;;28.27;;
20966;SDS011;10642;50.682;18.510;2022-11-15T16:17:57;64.90;;;31.70;;
20966;SDS011;10642;50.682;18.510;2022-11-15T16:20:43;61.50;;;30.70;;
20966;SDS011;10642;50.682;18.510;2022-11-15T16:23:11;63.53;;;32.90;;
20966;SDS011;10642;50.682;18.510;2022-11-15T16:25:46;65.23;;;30.03;;
20966;SDS011;10642;50.682;18.510;2022-11-15T16:30:43;62.20;;;30.00;;
20966;SDS011;10642;50.682;18.510;2022-11-15T16:33:10;58.73;;;28.97;;
20966;SDS011;10642;50.682;18.510;2022-11-15T16:35:38;68.03;;;35.40;;
20966;SDS011;10642;50.682;18.510;2022-11-15T16:38:06;61.40;;;31.13;;
20966;SDS011;10642;50.682;18.510;2022-11-15T16:40:34;68.67;;;33.67;;
20966;SDS011;10642;50.682;18.510;2022-11-15T16:43:01;62.97;;;29.60;;
20966;SDS011;10642;50.682;18.510;2022-11-15T16:45:30;98.80;;;44.07;;
20966;SDS011;10642;50.682;18.510;2022-11-15T16:47:57;93.40;;;46.33;;
20966;SDS011;10642;50.682;18.510;2022-11-15T16:50:26;90.20;;;44.80;;
20966;SDS011;10642;50.682;18.510;2022-11-15T16:52:53;82.20;;;42.40;;
20966;SDS011;10642;50.682;18.510;2022-11-15T16:55:21;82.67;;;40.57;;
20966;SDS011;10642;50.682;18.510;2022-11-15T16:57:48;84.63;;;42.43;;
20966;SDS011;10642;50.682;18.510;2022-11-15T17:00:16;65.97;;;34.23;;
20966;SDS011;10642;50.682;18.510;2022-11-15T17:02:43;77.30;;;38.30;;
20966;SDS011;10642;50.682;18.510;2022-11-15T17:05:11;95.33;;;48.33;;
20966;SDS011;10642;50.682;18.510;2022-11-15T17:07:46;120.70;;;58.50;;
20966;SDS011;10642;50.682;18.510;2022-11-15T17:10:14;164.57;;;64.50;;
20966;SDS011;10642;50.682;18.510;2022-11-15T17:12:41;147.27;;;67.90;;
20966;SDS011;10642;50.682;18.510;2022-11-15T17:15:10;102.97;;;48.37;;
20966;SDS011;10642;50.682;18.510;2022-11-15T17:17:37;149.27;;;61.47;;
20966;SDS011;10642;50.682;18.510;2022-11-15T17:20:05;119.50;;;58.07;;
20966;SDS011;10642;50.682;18.510;2022-11-15T17:22:36;100.00;;;50.33;;
20966;SDS011;10642;50.682;18.510;2022-11-15T17:25:03;85.13;;;44.60;;
20966;SDS011;10642;50.682;18.510;2022-11-15T17:27:30;75.53;;;41.70;;
20966;SDS011;10642;50.682;18.510;2022-11-15T17:29:57;72.50;;;37.93;;
20966;SDS011;10642;50.682;18.510;2022-11-15T17:32:24;71.37;;;37.93;;
20966;SDS011;10642;50.682;18.510;2022-11-15T17:34:51;53.80;;;28.53;;
20966;SDS011;10642;50.682;18.510;2022-11-15T17:37:18;57.80;;;27.07;;
20966;SDS011;10642;50.682;18.510;2022-11-15T17:39:45;66.43;;;32.80;;
20966;SDS011;10642;50.682;18.510;2022-11-15T17:42:12;81.40;;;42.17;;
20966;SDS011;10642;50.682;18.510;2022-11-15T17:44:38;72.00;;;37.47;;
20966;SDS011;10642;50.682;18.510;2022-11-15T17:47:05;65.20;;;34.27;;
20966;SDS011;10642;50.682;18.510;2022-11-15T17:49:32;60.00;;;29.53;;
20966;SDS011;10642;50.682;18.510;2022-11-15T17:52:04;55.03;;;29.00;;
20966;SDS011;10642;50.682;18.510;2022-11-15T17:54:30;56.70;;;26.93;;
20966;SDS011;10642;50.682;18.510;2022-11-15T17:56:57;65.83;;;28.77;;
20966;SDS011;10642;50.682;18.510;2022-11-15T17:59:24;62.30;;;27.17;;
20966;SDS011;10642;50.682;18.510;2022-11-15T18:01:51;52.23;;;27.17;;
20966;SDS011;10642;50.682;18.510;2022-11-15T18:04:19;59.30;;;27.83;;
20966;SDS011;10642;50.682;18.510;2022-11-15T18:06:47;51.90;;;25.73;;
20966;SDS011;10642;50.682;18.510;2022-11-15T18:09:14;50.60;;;24.67;;
20966;SDS011;10642;50.682;18.510;2022-11-15T18:11:40;57.93;;;27.27;;
20966;SDS011;10642;50.682;18.510;2022-11-15T18:14:12;45.93;;;23.13;;
20966;SDS011;10642;50.682;18.510;2022-11-15T18:16:39;46.33;;;20.17;;
20966;SDS011;10642;50.682;18.510;2022-11-15T18:19:07;42.17;;;19.23;;
20966;SDS011;10642;50.682;18.510;2022-11-15T18:21:41;39.57;;;18.57;;
20966;SDS011;10642;50.682;18.510;2022-11-15T18:24:25;39.97;;;19.03;;
20966;SDS011;10642;50.682;18.510;2022-11-15T18:26:53;36.13;;;18.20;;
20966;SDS011;10642;50.682;18.510;2022-11-15T18:29:20;34.37;;;18.17;;
20966;SDS011;10642;50.682;18.510;2022-11-15T18:31:47;34.20;;;18.13;;
20966;SDS011;10642;50.682;18.510;2022-11-15T18:34:15;35.37;;;18.37;;
20966;SDS011;10642;50.682;18.510;2022-11-15T18:36:43;36.67;;;18.87;;
20966;SDS011;10642;50.682;18.510;2022-11-15T18:39:10;37.27;;;16.70;;
20966;SDS011;10642;50.682;18.510;2022-11-15T18:41:42;30.07;;;15.60;;
20966;SDS011;10642;50.682;18.510;2022-11-15T18:44:09;33.87;;;17.13;;
20966;SDS011;10642;50.682;18.510;2022-11-15T18:46:36;37.20;;;18.13;;
20966;SDS011;10642;50.682;18.510;2022-11-15T18:49:05;43.23;;;24.07;;
20966;SDS011;10642;50.682;18.510;2022-11-15T18:51:33;42.17;;;22.73;;
20966;SDS011;10642;50.682;18.510;2022-11-15T18:54:01;44.00;;;23.90;;
20966;SDS011;10642;50.682;18.510;2022-11-15T18:56:28;44.43;;;23.53;;
20966;SDS011;10642;50.682;18.510;2022-11-15T18:58:56;44.47;;;24.17;;
20966;SDS011;10642;50.682;18.510;2022-11-15T19:01:24;45.33;;;24.33;;
20966;SDS011;10642;50.682;18.510;2022-11-15T19:03:53;52.37;;;26.73;;
20966;SDS011;10642;50.682;18.510;2022-11-15T19:06:21;105.57;;;40.57;;
20966;SDS011;10642;50.682;18.510;2022-11-15T19:08:49;69.27;;;27.03;;
20966;SDS011;10642;50.682;18.510;2022-11-15T19:11:20;51.70;;;22.57;;
20966;SDS011;10642;50.682;18.510;2022-11-15T19:14:05;40.40;;;20.43;;
20966;SDS011;10642;50.682;18.510;2022-11-15T19:16:33;38.50;;;19.23;;
20966;SDS011;10642;50.682;18.510;2022-11-15T19:19:10;39.50;;;19.47;;
20966;SDS011;10642;50.682;18.510;2022-11-15T19:21:38;35.80;;;18.67;;
20966;SDS011;10642;50.682;18.510;2022-11-15T19:24:05;32.10;;;18.17;;
20966;SDS011;10642;50.682;18.510;2022-11-15T19:26:32;33.37;;;18.10;;